sensor_id;sensor_type;location;lat;lon;timestamp;pressure;altitude;pressure_sealevel;temperature;humidity
2675;BME280;1347;42.122;24.746;2022-07-24T00:00:59;99522.97;;;26.36;50.21
2675;BME280;1347;42.122;24.746;2022-07-24T00:03:26;99528.16;;;26.28;49.84
2675;BME280;1347;42.122;24.746;2022-07-24T00:05:53;99524.38;;;26.31;49.79
2675;BME280;1347;42.122;24.746;2022-07-24T00:08:20;99528.44;;;26.30;50.29
2675;BME280;1347;42.122;24.746;2022-07-24T00:10:46;99523.94;;;26.24;50.43
2675;BME280;1347;42.122;24.746;2022-07-24T00:13:15;99528.94;;;26.20;50.53
2675;BME280;1347;42.122;24.746;2022-07-24T00:15:42;99525.25;;;26.14;50.67
2675;BME280;1347;42.122;24.746;2022-07-24T00:18:08;99524.31;;;26.08;50.44
2675;BME280;1347;42.122;24.746;2022-07-24T00:20:35;99534.03;;;25.97;50.68
2675;BME280;1347;42.122;24.746;2022-07-24T00:23:03;99531.56;;;25.90;50.82
2675;BME280;1347;42.122;24.746;2022-07-24T00:25:30;99538.47;;;25.80;51.25
2675;BME280;1347;42.122;24.746;2022-07-24T00:27:57;99529.91;;;25.75;51.54
2675;BME280;1347;42.122;24.746;2022-07-24T00:30:25;99530.53;;;25.70;51.88
2675;BME280;1347;42.122;24.746;2022-07-24T00:32:52;99531.78;;;25.59;51.55
2675;BME280;1347;42.122;24.746;2022-07-24T00:35:19;99533.97;;;25.55;52.23
2675;BME280;1347;42.122;24.746;2022-07-24T00:37:46;99537.44;;;25.50;52.33
2675;BME280;1347;42.122;24.746;2022-07-24T00:40:13;99536.53;;;25.44;52.04
2675;BME280;1347;42.122;24.746;2022-07-24T00:42:41;99527.81;;;25.33;52.85
2675;BME280;1347;42.122;24.746;2022-07-24T00:45:09;99537.00;;;25.34;52.75
2675;BME280;1347;42.122;24.746;2022-07-24T00:47:37;99531.38;;;25.34;52.51
2675;BME280;1347;42.122;24.746;2022-07-24T00:50:05;99532.66;;;25.23;52.46
2675;BME280;1347;42.122;24.746;2022-07-24T00:52:32;99537.31;;;25.08;53.32
2675;BME280;1347;42.122;24.746;2022-07-24T00:54:59;99536.69;;;24.95;53.62
2675;BME280;1347;42.122;24.746;2022-07-24T00:57:25;99535.13;;;24.94;53.24
2675;BME280;1347;42.122;24.746;2022-07-24T00:59:52;99532.16;;;24.88;53.48
2675;BME280;1347;42.122;24.746;2022-07-24T01:02:19;99533.69;;;24.80;53.73
2675;BME280;1347;42.122;24.746;2022-07-24T01:04:48;99528.25;;;24.77;53.59
2675;BME280;1347;42.122;24.746;2022-07-24T01:07:16;99526.53;;;24.79;53.85
2675;BME280;1347;42.122;24.746;2022-07-24T01:09:43;99524.97;;;24.87;53.35
2675;BME280;1347;42.122;24.746;2022-07-24T01:12:10;99530.25;;;24.85;53.71
2675;BME280;1347;42.122;24.746;2022-07-24T01:14:38;99524.38;;;24.83;53.74
2675;BME280;1347;42.122;24.746;2022-07-24T01:17:05;99515.13;;;24.74;54.13
2675;BME280;1347;42.122;24.746;2022-07-24T01:19:32;99521.53;;;24.65;53.98
2675;BME280;1347;42.122;24.746;2022-07-24T01:22:00;99514.19;;;24.58;53.81
2675;BME280;1347;42.122;24.746;2022-07-24T01:24:27;99515.59;;;24.54;54.67
2675;BME280;1347;42.122;24.746;2022-07-24T01:26:54;99514.50;;;24.51;54.64
2675;BME280;1347;42.122;24.746;2022-07-24T01:29:21;99517.31;;;24.51;54.38
2675;BME280;1347;42.122;24.746;2022-07-24T01:31:48;99514.03;;;24.53;54.60
2675;BME280;1347;42.122;24.746;2022-07-24T01:34:15;99515.44;;;24.57;54.68
2675;BME280;1347;42.122;24.746;2022-07-24T01:36:42;99516.38;;;24.64;54.41
2675;BME280;1347;42.122;24.746;2022-07-24T01:39:11;99513.44;;;24.67;54.56
2675;BME280;1347;42.122;24.746;2022-07-24T01:41:38;99517.34;;;24.70;54.29
2675;BME280;1347;42.122;24.746;2022-07-24T01:44:05;99511.09;;;24.66;54.33
2675;BME280;1347;42.122;24.746;2022-07-24T01:46:31;99512.31;;;24.55;54.55
2675;BME280;1347;42.122;24.746;2022-07-24T01:48:58;99513.72;;;24.51;54.16
2675;BME280;1347;42.122;24.746;2022-07-24T01:51:25;99509.03;;;24.48;54.36
2675;BME280;1347;42.122;24.746;2022-07-24T01:53:52;99509.84;;;24.48;54.41
2675;BME280;1347;42.122;24.746;2022-07-24T01:56:20;99505.91;;;24.46;54.35
2675;BME280;1347;42.122;24.746;2022-07-24T01:58:47;99507.94;;;24.45;54.41
2675;BME280;1347;42.122;24.746;2022-07-24T02:01:14;99506.56;;;24.41;54.64
2675;BME280;1347;42.122;24.746;2022-07-24T02:03:41;99505.31;;;24.42;54.87
2675;BME280;1347;42.122;24.746;2022-07-24T02:06:08;99506.84;;;24.43;54.85
2675;BME280;1347;42.122;24.746;2022-07-24T02:08:34;99502.66;;;24.47;54.48
2675;BME280;1347;42.122;24.746;2022-07-24T02:11:01;99497.84;;;24.48;54.67
2675;BME280;1347;42.122;24.746;2022-07-24T02:13:30;99505.78;;;24.49;54.86
2675;BME280;1347;42.122;24.746;2022-07-24T02:15:56;99504.69;;;24.47;54.70
2675;BME280;1347;42.122;24.746;2022-07-24T02:18:23;99507.03;;;24.48;54.35
2675;BME280;1347;42.122;24.746;2022-07-24T02:20:50;99504.81;;;24.43;54.16
2675;BME280;1347;42.122;24.746;2022-07-24T02:23:17;99501.88;;;24.47;54.32
2675;BME280;1347;42.122;24.746;2022-07-24T02:25:45;99504.69;;;24.47;54.17
2675;BME280;1347;42.122;24.746;2022-07-24T02:28:12;99496.91;;;24.42;54.58
2675;BME280;1347;42.122;24.746;2022-07-24T02:30:41;99505.00;;;24.49;54.77
2675;BME280;1347;42.122;24.746;2022-07-24T02:33:08;99511.22;;;24.53;54.05
2675;BME280;1347;42.122;24.746;2022-07-24T02:35:35;99509.69;;;24.52;54.20
2675;BME280;1347;42.122;24.746;2022-07-24T02:38:03;99507.00;;;24.39;55.19
2675;BME280;1347;42.122;24.746;2022-07-24T02:40:31;99505.00;;;24.49;55.11
2675;BME280;1347;42.122;24.746;2022-07-24T02:42:58;99502.34;;;24.45;55.44
2675;BME280;1347;42.122;24.746;2022-07-24T02:45:25;99496.59;;;24.49;55.19
2675;BME280;1347;42.122;24.746;2022-07-24T02:47:54;99502.03;;;24.43;55.21
2675;BME280;1347;42.122;24.746;2022-07-24T02:50:24;99505.44;;;24.38;55.77
2675;BME280;1347;42.122;24.746;2022-07-24T02:52:51;99502.78;;;24.35;55.87
2675;BME280;1347;42.122;24.746;2022-07-24T02:55:18;99506.81;;;24.34;55.70
2675;BME280;1347;42.122;24.746;2022-07-24T02:57:45;99500.63;;;24.39;55.89
2675;BME280;1347;42.122;24.746;2022-07-24T03:00:16;99498.59;;;24.30;56.23
2675;BME280;1347;42.122;24.746;2022-07-24T03:02:43;99500.88;;;24.23;56.85
2675;BME280;1347;42.122;24.746;2022-07-24T03:05:12;99509.16;;;24.26;56.83
2675;BME280;1347;42.122;24.746;2022-07-24T03:07:39;99499.44;;;24.09;57.28
2675;BME280;1347;42.122;24.746;2022-07-24T03:10:08;99500.81;;;24.04;57.23
2675;BME280;1347;42.122;24.746;2022-07-24T03:12:36;99505.38;;;24.20;57.51
2675;BME280;1347;42.122;24.746;2022-07-24T03:15:04;99497.25;;;24.13;57.12
2675;BME280;1347;42.122;24.746;2022-07-24T03:17:31;99492.13;;;24.11;57.15
2675;BME280;1347;42.122;24.746;2022-07-24T03:19:58;99505.03;;;24.09;57.21
2675;BME280;1347;42.122;24.746;2022-07-24T03:22:26;99507.47;;;23.98;57.64
2675;BME280;1347;42.122;24.746;2022-07-24T03:24:54;99503.72;;;23.92;57.16
2675;BME280;1347;42.122;24.746;2022-07-24T03:27:20;99497.81;;;23.90;57.54
2675;BME280;1347;42.122;24.746;2022-07-24T03:29:47;99507.16;;;23.96;57.51
2675;BME280;1347;42.122;24.746;2022-07-24T03:32:14;99507.47;;;23.98;57.57
2675;BME280;1347;42.122;24.746;2022-07-24T03:34:41;99506.41;;;24.04;56.57
2675;BME280;1347;42.122;24.746;2022-07-24T03:37:08;99503.25;;;23.93;57.01
2675;BME280;1347;42.122;24.746;2022-07-24T03:39:36;99507.25;;;23.83;57.61
2675;BME280;1347;42.122;24.746;2022-07-24T03:42:03;99494.81;;;23.84;57.73
2675;BME280;1347;42.122;24.746;2022-07-24T03:44:30;99494.66;;;23.78;57.02
2675;BME280;1347;42.122;24.746;2022-07-24T03:46:57;99493.56;;;23.85;57.02
2675;BME280;1347;42.122;24.746;2022-07-24T03:49:24;99501.69;;;23.92;56.46
2675;BME280;1347;42.122;24.746;2022-07-24T03:51:51;99505.31;;;24.02;55.68
2675;BME280;1347;42.122;24.746;2022-07-24T03:54:17;99508.16;;;24.11;55.52
2675;BME280;1347;42.122;24.746;2022-07-24T03:56:46;99511.88;;;24.08;55.58
2675;BME280;1347;42.122;24.746;2022-07-24T03:59:13;99508.13;;;24.02;55.79
2675;BME280;1347;42.122;24.746;2022-07-24T04:01:39;99508.78;;;24.15;55.79
2675;BME280;1347;42.122;24.746;2022-07-24T04:04:06;99520.94;;;24.21;55.83
2675;BME280;1347;42.122;24.746;2022-07-24T04:06:34;99516.44;;;24.24;56.00
2675;BME280;1347;42.122;24.746;2022-07-24T04:09:02;99510.72;;;24.27;56.17
2675;BME280;1347;42.122;24.746;2022-07-24T04:11:29;99518.13;;;24.12;56.58
2675;BME280;1347;42.122;24.746;2022-07-24T04:13:58;99516.72;;;24.16;56.74
2675;BME280;1347;42.122;24.746;2022-07-24T04:16:25;99510.56;;;24.22;56.65
2675;BME280;1347;42.122;24.746;2022-07-24T04:18:52;99515.22;;;24.25;56.70
2675;BME280;1347;42.122;24.746;2022-07-24T04:21:19;99522.84;;;24.24;57.11
2675;BME280;1347;42.122;24.746;2022-07-24T04:23:46;99520.53;;;24.32;57.29
2675;BME280;1347;42.122;24.746;2022-07-24T04:26:13;99521.34;;;24.41;57.13
2675;BME280;1347;42.122;24.746;2022-07-24T04:28:40;99522.28;;;24.47;57.21
2675;BME280;1347;42.122;24.746;2022-07-24T04:31:09;99528.50;;;24.42;57.51
2675;BME280;1347;42.122;24.746;2022-07-24T04:33:36;99519.16;;;24.45;56.92
2675;BME280;1347;42.122;24.746;2022-07-24T04:36:04;99524.00;;;24.63;56.53
2675;BME280;1347;42.122;24.746;2022-07-24T04:38:31;99514.81;;;24.53;56.84
2675;BME280;1347;42.122;24.746;2022-07-24T04:40:58;99518.88;;;24.52;57.22
2675;BME280;1347;42.122;24.746;2022-07-24T04:43:25;99513.56;;;24.64;56.55
2675;BME280;1347;42.122;24.746;2022-07-24T04:45:52;99517.03;;;24.68;56.89
2675;BME280;1347;42.122;24.746;2022-07-24T04:48:21;99519.22;;;24.82;57.01
2675;BME280;1347;42.122;24.746;2022-07-24T04:50:48;99517.81;;;24.86;56.45
2675;BME280;1347;42.122;24.746;2022-07-24T04:53:14;99515.97;;;24.92;56.97
2675;BME280;1347;42.122;24.746;2022-07-24T04:55:41;99521.84;;;24.85;56.48
2675;BME280;1347;42.122;24.746;2022-07-24T04:58:08;99521.59;;;24.92;56.88
2675;BME280;1347;42.122;24.746;2022-07-24T05:00:35;99515.97;;;25.02;56.71
2675;BME280;1347;42.122;24.746;2022-07-24T05:03:02;99515.97;;;25.02;56.63
2675;BME280;1347;42.122;24.746;2022-07-24T05:05:31;99515.03;;;25.14;55.49
2675;BME280;1347;42.122;24.746;2022-07-24T05:07:57;99523.59;;;25.19;55.70
2675;BME280;1347;42.122;24.746;2022-07-24T05:10:24;99520.03;;;25.10;56.16
2675;BME280;1347;42.122;24.746;2022-07-24T05:12:51;99517.19;;;25.28;56.17
2675;BME280;1347;42.122;24.746;2022-07-24T05:15:18;99515.94;;;25.38;55.71
2675;BME280;1347;42.122;24.746;2022-07-24T05:17:45;99521.84;;;25.49;55.54
2675;BME280;1347;42.122;24.746;2022-07-24T05:20:13;99517.75;;;25.59;54.96
2675;BME280;1347;42.122;24.746;2022-07-24T05:22:42;99519.47;;;25.66;54.88
2675;BME280;1347;42.122;24.746;2022-07-24T05:25:09;99503.59;;;25.63;55.74
2675;BME280;1347;42.122;24.746;2022-07-24T05:27:36;99511.78;;;25.76;55.32
2675;BME280;1347;42.122;24.746;2022-07-24T05:30:04;99512.84;;;25.87;55.37
2675;BME280;1347;42.122;24.746;2022-07-24T05:32:32;99508.13;;;26.02;53.47
2675;BME280;1347;42.122;24.746;2022-07-24T05:34:59;99520.22;;;26.18;53.15
2675;BME280;1347;42.122;24.746;2022-07-24T05:37:26;99518.78;;;26.31;53.37
2675;BME280;1347;42.122;24.746;2022-07-24T05:39:54;99513.44;;;26.33;53.06
2675;BME280;1347;42.122;24.746;2022-07-24T05:42:21;99513.69;;;26.45;51.97
2675;BME280;1347;42.122;24.746;2022-07-24T05:44:48;99517.72;;;26.53;51.72
2675;BME280;1347;42.122;24.746;2022-07-24T05:47:15;99513.88;;;26.65;51.64
2675;BME280;1347;42.122;24.746;2022-07-24T05:49:42;99519.13;;;26.72;51.21
2675;BME280;1347;42.122;24.746;2022-07-24T05:52:08;99508.59;;;26.82;51.11
2675;BME280;1347;42.122;24.746;2022-07-24T05:54:36;99515.13;;;26.64;50.25
2675;BME280;1347;42.122;24.746;2022-07-24T05:57:05;99510.97;;;26.98;51.06
2675;BME280;1347;42.122;24.746;2022-07-24T05:59:31;99517.31;;;27.07;50.21
2675;BME280;1347;42.122;24.746;2022-07-24T06:01:58;99512.56;;;27.28;50.12
2675;BME280;1347;42.122;24.746;2022-07-24T06:04:29;99507.75;;;27.43;49.57
2675;BME280;1347;42.122;24.746;2022-07-24T06:06:56;99511.72;;;27.37;49.43
2675;BME280;1347;42.122;24.746;2022-07-24T06:09:23;99506.66;;;27.41;49.51
2675;BME280;1347;42.122;24.746;2022-07-24T06:11:50;99507.56;;;27.62;48.76
2675;BME280;1347;42.122;24.746;2022-07-24T06:14:18;99503.09;;;27.84;48.19
2675;BME280;1347;42.122;24.746;2022-07-24T06:16:45;99495.47;;;28.05;48.09
2675;BME280;1347;42.122;24.746;2022-07-24T06:19:12;99487.75;;;28.20;47.57
2675;BME280;1347;42.122;24.746;2022-07-24T06:21:39;99477.16;;;28.15;47.05
2675;BME280;1347;42.122;24.746;2022-07-24T06:24:06;99480.19;;;28.12;46.76
2675;BME280;1347;42.122;24.746;2022-07-24T06:26:33;99486.81;;;28.09;47.18
2675;BME280;1347;42.122;24.746;2022-07-24T06:28:59;99478.44;;;28.14;47.25
2675;BME280;1347;42.122;24.746;2022-07-24T06:31:28;99483.16;;;28.38;46.46
2675;BME280;1347;42.122;24.746;2022-07-24T06:33:55;99480.19;;;28.67;46.45
2675;BME280;1347;42.122;24.746;2022-07-24T06:36:21;99465.53;;;28.83;45.61
2675;BME280;1347;42.122;24.746;2022-07-24T06:38:49;99477.09;;;29.11;45.27
2675;BME280;1347;42.122;24.746;2022-07-24T06:41:16;99472.06;;;28.95;45.20
2675;BME280;1347;42.122;24.746;2022-07-24T06:43:42;99470.59;;;29.25;44.88
2675;BME280;1347;42.122;24.746;2022-07-24T06:46:09;99463.91;;;29.49;43.80
2675;BME280;1347;42.122;24.746;2022-07-24T06:48:38;99469.66;;;29.60;43.59
2675;BME280;1347;42.122;24.746;2022-07-24T06:51:05;99462.53;;;29.70;43.28
2675;BME280;1347;42.122;24.746;2022-07-24T06:53:32;99469.47;;;30.00;43.69
2675;BME280;1347;42.122;24.746;2022-07-24T06:55:58;99471.38;;;30.20;42.91
2675;BME280;1347;42.122;24.746;2022-07-24T06:58:27;99453.28;;;30.01;43.49
2675;BME280;1347;42.122;24.746;2022-07-24T07:00:54;99461.25;;;30.51;42.61
2675;BME280;1347;42.122;24.746;2022-07-24T07:03:20;99455.16;;;30.69;42.29
2675;BME280;1347;42.122;24.746;2022-07-24T07:05:49;99463.72;;;30.97;42.30
2675;BME280;1347;42.122;24.746;2022-07-24T07:08:16;99464.06;;;31.21;41.52
2675;BME280;1347;42.122;24.746;2022-07-24T07:10:42;99457.91;;;31.45;42.01
2675;BME280;1347;42.122;24.746;2022-07-24T07:13:09;99459.72;;;31.76;40.71
2675;BME280;1347;42.122;24.746;2022-07-24T07:15:36;99451.22;;;31.93;41.05
2675;BME280;1347;42.122;24.746;2022-07-24T07:18:03;99452.19;;;32.12;40.80
2675;BME280;1347;42.122;24.746;2022-07-24T07:20:30;99446.50;;;32.29;40.03
2675;BME280;1347;42.122;24.746;2022-07-24T07:22:58;99450.84;;;32.41;39.10
2675;BME280;1347;42.122;24.746;2022-07-24T07:25:25;99444.03;;;32.66;39.99
2675;BME280;1347;42.122;24.746;2022-07-24T07:27:52;99446.03;;;32.82;40.01
2675;BME280;1347;42.122;24.746;2022-07-24T07:30:19;99443.59;;;33.03;38.65
2675;BME280;1347;42.122;24.746;2022-07-24T07:32:47;99438.94;;;33.06;38.03
2675;BME280;1347;42.122;24.746;2022-07-24T07:35:14;99435.25;;;32.64;38.75
2675;BME280;1347;42.122;24.746;2022-07-24T07:37:40;99439.06;;;33.19;38.83
2675;BME280;1347;42.122;24.746;2022-07-24T07:40:10;99444.38;;;33.39;38.48
2675;BME280;1347;42.122;24.746;2022-07-24T07:42:37;99436.97;;;33.60;37.65
2675;BME280;1347;42.122;24.746;2022-07-24T07:45:04;99432.25;;;33.69;38.27
2675;BME280;1347;42.122;24.746;2022-07-24T07:47:35;99427.13;;;33.91;38.02
2675;BME280;1347;42.122;24.746;2022-07-24T07:50:02;99434.72;;;34.08;37.14
2675;BME280;1347;42.122;24.746;2022-07-24T07:52:29;99431.06;;;34.37;37.41
2675;BME280;1347;42.122;24.746;2022-07-24T07:54:56;99429.38;;;34.66;37.53
2675;BME280;1347;42.122;24.746;2022-07-24T07:57:25;99433.78;;;35.04;36.64
2675;BME280;1347;42.122;24.746;2022-07-24T07:59:51;99426.06;;;35.18;35.94
2675;BME280;1347;42.122;24.746;2022-07-24T08:02:18;99429.53;;;35.30;35.77
2675;BME280;1347;42.122;24.746;2022-07-24T08:04:45;99424.56;;;35.49;36.12
2675;BME280;1347;42.122;24.746;2022-07-24T08:07:12;99427.59;;;35.83;36.23
2675;BME280;1347;42.122;24.746;2022-07-24T08:09:39;99421.63;;;35.68;35.88
2675;BME280;1347;42.122;24.746;2022-07-24T08:12:06;99417.13;;;35.27;35.51
2675;BME280;1347;42.122;24.746;2022-07-24T08:14:35;99416.28;;;35.77;35.09
2675;BME280;1347;42.122;24.746;2022-07-24T08:17:02;99407.84;;;35.85;35.21
2675;BME280;1347;42.122;24.746;2022-07-24T08:19:29;99411.03;;;36.47;34.63
2675;BME280;1347;42.122;24.746;2022-07-24T08:21:56;99410.50;;;36.96;34.88
2675;BME280;1347;42.122;24.746;2022-07-24T08:24:23;99411.97;;;37.24;33.77
2675;BME280;1347;42.122;24.746;2022-07-24T08:26:50;99411.25;;;37.51;33.40
2675;BME280;1347;42.122;24.746;2022-07-24T08:29:17;99411.75;;;37.63;32.58
2675;BME280;1347;42.122;24.746;2022-07-24T08:31:45;99409.69;;;37.92;31.90
2675;BME280;1347;42.122;24.746;2022-07-24T08:34:12;99398.34;;;38.07;31.58
2675;BME280;1347;42.122;24.746;2022-07-24T08:36:40;99409.25;;;38.45;32.06
2675;BME280;1347;42.122;24.746;2022-07-24T08:39:11;99402.81;;;38.52;31.79
2675;BME280;1347;42.122;24.746;2022-07-24T08:41:37;99401.78;;;38.85;31.81
2675;BME280;1347;42.122;24.746;2022-07-24T08:44:04;99399.00;;;38.57;31.98
2675;BME280;1347;42.122;24.746;2022-07-24T08:46:32;99403.09;;;38.84;30.68
2675;BME280;1347;42.122;24.746;2022-07-24T08:49:06;99399.78;;;39.31;30.85
2675;BME280;1347;42.122;24.746;2022-07-24T08:51:36;99400.19;;;39.43;30.43
2675;BME280;1347;42.122;24.746;2022-07-24T08:54:06;99400.38;;;39.60;30.87
2675;BME280;1347;42.122;24.746;2022-07-24T08:56:34;99394.63;;;39.83;30.64
2675;BME280;1347;42.122;24.746;2022-07-24T08:59:04;99394.56;;;40.29;30.00
2675;BME280;1347;42.122;24.746;2022-07-24T09:01:31;99397.50;;;40.61;29.83
2675;BME280;1347;42.122;24.746;2022-07-24T09:03:58;99396.41;;;40.89;29.02
2675;BME280;1347;42.122;24.746;2022-07-24T09:06:26;99387.16;;;40.98;28.66
2675;BME280;1347;42.122;24.746;2022-07-24T09:08:57;99388.06;;;40.76;28.95
2675;BME280;1347;42.122;24.746;2022-07-24T09:11:25;99380.81;;;41.00;28.72
2675;BME280;1347;42.122;24.746;2022-07-24T09:13:59;99379.75;;;41.20;29.34
2675;BME280;1347;42.122;24.746;2022-07-24T09:16:44;99380.41;;;40.63;29.43
2675;BME280;1347;42.122;24.746;2022-07-24T09:19:11;99376.81;;;40.95;29.24
2675;BME280;1347;42.122;24.746;2022-07-24T09:21:41;99370.22;;;41.10;29.19
2675;BME280;1347;42.122;24.746;2022-07-24T09:24:14;99376.44;;;41.48;28.37
2675;BME280;1347;42.122;24.746;2022-07-24T09:26:46;99371.00;;;41.60;28.56
2675;BME280;1347;42.122;24.746;2022-07-24T09:29:14;99371.25;;;42.14;28.22
2675;BME280;1347;42.122;24.746;2022-07-24T09:31:55;99359.03;;;42.23;28.24
2675;BME280;1347;42.122;24.746;2022-07-24T09:34:23;99363.41;;;42.58;27.82
2675;BME280;1347;42.122;24.746;2022-07-24T09:36:59;99359.28;;;42.79;27.99
2675;BME280;1347;42.122;24.746;2022-07-24T09:39:27;99349.88;;;42.34;27.44
2675;BME280;1347;42.122;24.746;2022-07-24T09:41:56;99356.59;;;42.64;27.95
2675;BME280;1347;42.122;24.746;2022-07-24T09:44:23;99351.91;;;42.85;27.31
2675;BME280;1347;42.122;24.746;2022-07-24T09:46:58;99348.53;;;43.16;27.67
2675;BME280;1347;42.122;24.746;2022-07-24T09:49:26;99350.66;;;43.15;27.16
2675;BME280;1347;42.122;24.746;2022-07-24T09:52:10;99352.56;;;43.76;27.17
2675;BME280;1347;42.122;24.746;2022-07-24T09:54:39;99343.94;;;43.95;26.99
2675;BME280;1347;42.122;24.746;2022-07-24T09:57:22;99343.75;;;44.03;26.22
2675;BME280;1347;42.122;24.746;2022-07-24T09:59:50;99335.25;;;44.15;26.40
2675;BME280;1347;42.122;24.746;2022-07-24T10:02:19;99342.69;;;44.27;26.10
2675;BME280;1347;42.122;24.746;2022-07-24T10:04:47;99332.78;;;43.92;25.70
2675;BME280;1347;42.122;24.746;2022-07-24T10:07:18;99327.50;;;43.33;26.40
2675;BME280;1347;42.122;24.746;2022-07-24T10:09:47;99331.56;;;42.83;27.90
2675;BME280;1347;42.122;24.746;2022-07-24T10:12:16;99322.91;;;42.66;27.31
2675;BME280;1347;42.122;24.746;2022-07-24T10:14:45;99322.88;;;42.56;27.27
2675;BME280;1347;42.122;24.746;2022-07-24T10:17:14;99319.28;;;42.66;27.32
2675;BME280;1347;42.122;24.746;2022-07-24T10:19:42;99313.25;;;42.44;27.51
2675;BME280;1347;42.122;24.746;2022-07-24T10:22:13;99323.06;;;42.85;27.16
2675;BME280;1347;42.122;24.746;2022-07-24T10:25:02;99311.81;;;43.16;27.40
2675;BME280;1347;42.122;24.746;2022-07-24T10:27:32;99304.41;;;42.96;26.91
2675;BME280;1347;42.122;24.746;2022-07-24T10:30:01;99309.16;;;42.74;27.76
2675;BME280;1347;42.122;24.746;2022-07-24T10:32:30;99296.97;;;43.29;26.84
2675;BME280;1347;42.122;24.746;2022-07-24T10:35:12;99292.84;;;43.23;26.42
2675;BME280;1347;42.122;24.746;2022-07-24T10:37:48;99291.81;;;43.47;26.57
2675;BME280;1347;42.122;24.746;2022-07-24T10:40:23;99293.88;;;43.93;26.45
2675;BME280;1347;42.122;24.746;2022-07-24T10:43:13;99285.06;;;44.00;26.08
2675;BME280;1347;42.122;24.746;2022-07-24T10:45:41;99292.19;;;44.38;25.76
2675;BME280;1347;42.122;24.746;2022-07-24T10:48:30;99294.72;;;44.53;25.67
2675;BME280;1347;42.122;24.746;2022-07-24T10:51:06;99290.25;;;44.81;25.81
2675;BME280;1347;42.122;24.746;2022-07-24T10:53:49;99279.75;;;45.17;24.04
2675;BME280;1347;42.122;24.746;2022-07-24T10:56:21;99280.72;;;45.31;23.92
2675;BME280;1347;42.122;24.746;2022-07-24T10:58:54;99281.50;;;45.53;24.14
2675;BME280;1347;42.122;24.746;2022-07-24T11:01:33;99265.78;;;45.77;23.90
2675;BME280;1347;42.122;24.746;2022-07-24T11:04:04;99265.72;;;45.65;24.13
2675;BME280;1347;42.122;24.746;2022-07-24T11:06:51;99260.06;;;45.89;23.05
2675;BME280;1347;42.122;24.746;2022-07-24T11:09:19;99264.38;;;45.99;22.96
2675;BME280;1347;42.122;24.746;2022-07-24T11:12:06;99252.41;;;46.05;23.29
2675;BME280;1347;42.122;24.746;2022-07-24T11:14:50;99247.81;;;46.23;22.88
2675;BME280;1347;42.122;24.746;2022-07-24T11:17:37;99252.66;;;46.53;22.75
2675;BME280;1347;42.122;24.746;2022-07-24T11:20:06;99255.03;;;46.34;23.25
2675;BME280;1347;42.122;24.746;2022-07-24T11:22:42;99247.50;;;46.52;22.58
2675;BME280;1347;42.122;24.746;2022-07-24T11:25:12;99241.06;;;46.42;22.66
2675;BME280;1347;42.122;24.746;2022-07-24T11:27:49;99238.84;;;46.64;22.42
2675;BME280;1347;42.122;24.746;2022-07-24T11:30:19;99235.81;;;46.73;22.16
2675;BME280;1347;42.122;24.746;2022-07-24T11:32:46;99229.16;;;46.82;22.88
2675;BME280;1347;42.122;24.746;2022-07-24T11:35:13;99226.25;;;46.82;22.60
2675;BME280;1347;42.122;24.746;2022-07-24T11:37:41;99219.88;;;46.39;23.39
2675;BME280;1347;42.122;24.746;2022-07-24T11:40:13;99214.31;;;46.43;23.99
2675;BME280;1347;42.122;24.746;2022-07-24T11:42:40;99210.69;;;46.31;23.44
2675;BME280;1347;42.122;24.746;2022-07-24T11:45:09;99211.94;;;45.95;23.65
2675;BME280;1347;42.122;24.746;2022-07-24T11:47:36;99199.63;;;46.06;24.30
2675;BME280;1347;42.122;24.746;2022-07-24T11:50:05;99203.44;;;46.09;23.49
2675;BME280;1347;42.122;24.746;2022-07-24T11:52:34;99201.63;;;46.04;23.56
2675;BME280;1347;42.122;24.746;2022-07-24T11:55:05;99207.06;;;45.76;23.50
2675;BME280;1347;42.122;24.746;2022-07-24T11:57:33;99194.06;;;45.66;23.49
2675;BME280;1347;42.122;24.746;2022-07-24T12:00:00;99186.75;;;45.65;23.45
2675;BME280;1347;42.122;24.746;2022-07-24T12:02:29;99192.94;;;45.71;23.58
2675;BME280;1347;42.122;24.746;2022-07-24T12:04:56;99179.97;;;45.72;22.85
2675;BME280;1347;42.122;24.746;2022-07-24T12:07:24;99183.41;;;45.80;22.81
2675;BME280;1347;42.122;24.746;2022-07-24T12:09:53;99181.34;;;45.59;23.43
2675;BME280;1347;42.122;24.746;2022-07-24T12:12:21;99174.66;;;45.90;23.11
2675;BME280;1347;42.122;24.746;2022-07-24T12:14:50;99170.66;;;46.06;22.63
2675;BME280;1347;42.122;24.746;2022-07-24T12:17:18;99162.41;;;46.47;22.97
2675;BME280;1347;42.122;24.746;2022-07-24T12:19:54;99170.84;;;47.02;22.76
2675;BME280;1347;42.122;24.746;2022-07-24T12:22:24;99164.94;;;47.74;22.01
2675;BME280;1347;42.122;24.746;2022-07-24T12:24:51;99167.50;;;48.32;21.99
2675;BME280;1347;42.122;24.746;2022-07-24T12:27:48;99159.06;;;49.34;20.71
2675;BME280;1347;42.122;24.746;2022-07-24T12:30:23;99156.41;;;50.60;19.91
2675;BME280;1347;42.122;24.746;2022-07-24T12:32:58;99155.56;;;51.58;19.46
2675;BME280;1347;42.122;24.746;2022-07-24T12:35:28;99151.59;;;51.86;18.86
2675;BME280;1347;42.122;24.746;2022-07-24T12:37:56;99149.72;;;52.31;19.47
2675;BME280;1347;42.122;24.746;2022-07-24T12:40:25;99149.94;;;52.37;19.02
2675;BME280;1347;42.122;24.746;2022-07-24T12:42:57;99132.81;;;52.88;19.25
2675;BME280;1347;42.122;24.746;2022-07-24T12:45:24;99137.47;;;52.96;19.10
2675;BME280;1347;42.122;24.746;2022-07-24T12:48:09;99131.63;;;53.39;18.77
2675;BME280;1347;42.122;24.746;2022-07-24T12:50:39;99119.50;;;53.27;18.86
2675;BME280;1347;42.122;24.746;2022-07-24T12:53:07;99117.28;;;52.64;17.94
2675;BME280;1347;42.122;24.746;2022-07-24T12:55:35;99118.19;;;52.88;18.12
2675;BME280;1347;42.122;24.746;2022-07-24T12:58:04;99108.66;;;52.29;18.69
2675;BME280;1347;42.122;24.746;2022-07-24T13:00:32;99108.97;;;52.37;17.34
2675;BME280;1347;42.122;24.746;2022-07-24T13:02:59;99100.69;;;52.11;17.39
2675;BME280;1347;42.122;24.746;2022-07-24T13:05:38;99091.19;;;52.70;18.35
2675;BME280;1347;42.122;24.746;2022-07-24T13:08:05;99088.91;;;52.69;17.15
2675;BME280;1347;42.122;24.746;2022-07-24T13:10:33;99103.81;;;52.97;16.89
2675;BME280;1347;42.122;24.746;2022-07-24T13:12:59;99093.97;;;53.29;16.47
2675;BME280;1347;42.122;24.746;2022-07-24T13:15:26;99084.28;;;53.25;17.50
2675;BME280;1347;42.122;24.746;2022-07-24T13:17:53;99089.78;;;53.37;17.06